createdAt,value
2023-01-29T00:00:37.045Z,101207.25
2023-01-29T00:03:45.683Z,101203.84
2023-01-29T00:07:00.731Z,101201.94
2023-01-29T00:10:09.719Z,101196.72
2023-01-29T00:13:18.580Z,101205.34
2023-01-29T00:16:26.720Z,101200.56
2023-01-29T00:19:36.115Z,101213.28
2023-01-29T00:22:44.775Z,101209.53
2023-01-29T00:25:53.335Z,101218.44
2023-01-29T00:29:02.731Z,101210.88
2023-01-29T00:32:17.799Z,101220.84
2023-01-29T00:35:19.725Z,101223.75
2023-01-29T00:38:34.707Z,101226.87
2023-01-29T00:41:43.425Z,101225.84
2023-01-29T00:44:51.736Z,101230.63
2023-01-29T00:48:00.473Z,101225.50
2023-01-29T00:51:17.736Z,101240.13
2023-01-29T00:54:26.503Z,101228.25
2023-01-29T00:57:37.776Z,101245.22
2023-01-29T01:00:46.640Z,101236.97
2023-01-29T01:03:55.703Z,101242.12
2023-01-29T01:10:18.354Z,101242.81
2023-01-29T01:13:32.746Z,101249.47
2023-01-29T01:16:34.600Z,101224.97
2023-01-29T01:19:49.717Z,101243.63
2023-01-29T01:23:00.758Z,101234.81
2023-01-29T01:26:10.101Z,101245.50
2023-01-29T01:29:18.712Z,101241.91
2023-01-29T01:32:28.364Z,101242.69
2023-01-29T01:35:36.753Z,101249.78
2023-01-29T01:38:45.370Z,101247.41
2023-01-29T01:41:53.807Z,101252.00
2023-01-29T01:45:12.733Z,101249.78
2023-01-29T01:48:26.668Z,101256.81
2023-01-29T01:51:53.712Z,101261.03
2023-01-29T01:54:55.686Z,101262.97
2023-01-29T01:58:18.768Z,101267.31
2023-01-29T02:01:33.721Z,101262.66
2023-01-29T02:04:35.592Z,101268.28
2023-01-29T02:07:53.788Z,101263.75
2023-01-29T02:11:02.714Z,101263.34
2023-01-29T02:14:18.744Z,101262.03
2023-01-29T02:17:26.779Z,101276.34
2023-01-29T02:20:44.730Z,101273.28
2023-01-29T02:24:36.792Z,101275.69
2023-01-29T02:28:02.792Z,101276.88
2023-01-29T02:31:25.798Z,101287.41
2023-01-29T02:34:58.797Z,101287.03
2023-01-29T02:38:30.735Z,101287.13
2023-01-29T02:41:43.793Z,101285.22
2023-01-29T02:45:05.745Z,101282.75
2023-01-29T02:48:15.785Z,101285.78
2023-01-29T02:51:50.767Z,101290.75
2023-01-29T02:55:15.783Z,101296.00
2023-01-29T02:58:29.115Z,101296.88
2023-01-29T03:01:51.790Z,101299.50
2023-01-29T03:04:59.992Z,101306.44
2023-01-29T03:08:18.796Z,101306.38
2023-01-29T03:11:21.194Z,101300.66
2023-01-29T03:14:44.896Z,101308.53
2023-01-29T03:17:56.843Z,101305.81
2023-01-29T03:21:17.766Z,101300.38
2023-01-29T03:24:36.747Z,101307.00
2023-01-29T03:27:53.737Z,101306.59
2023-01-29T03:31:03.811Z,101315.41
2023-01-29T03:34:17.302Z,101313.84
2023-01-29T03:37:33.763Z,101320.22
2023-01-29T03:40:59.769Z,101326.28
2023-01-29T03:44:14.637Z,101321.47
2023-01-29T03:47:43.882Z,101318.97
2023-01-29T03:51:01.831Z,101324.87
2023-01-29T03:54:29.778Z,101329.03
2023-01-29T03:57:37.708Z,101330.59
2023-01-29T04:01:02.827Z,101324.00
2023-01-29T04:04:15.042Z,101321.22
2023-01-29T04:07:31.803Z,101327.22
2023-01-29T04:10:44.789Z,101317.72
2023-01-29T04:13:53.939Z,101321.06
2023-01-29T04:17:06.771Z,101315.69
2023-01-29T04:20:16.401Z,101324.91
2023-01-29T04:23:33.763Z,101322.66
2023-01-29T04:27:04.817Z,101322.28
2023-01-29T04:30:32.896Z,101323.53
2023-01-29T04:34:10.859Z,101317.72
2023-01-29T04:37:21.028Z,101323.53
2023-01-29T04:40:50.057Z,101308.37
2023-01-29T04:44:08.115Z,101312.09
2023-01-29T04:47:37.891Z,101326.56
2023-01-29T04:51:10.703Z,101322.22
2023-01-29T04:54:29.779Z,101317.34
2023-01-29T04:58:11.855Z,101322.38
2023-01-29T05:01:24.774Z,101306.00
2023-01-29T05:04:35.680Z,101329.88
2023-01-29T05:07:45.813Z,101327.97
2023-01-29T05:10:57.396Z,101323.44
2023-01-29T05:14:09.831Z,101314.87
2023-01-29T05:17:26.813Z,101325.50
2023-01-29T05:20:34.065Z,101329.09
2023-01-29T05:23:48.850Z,101322.94
2023-01-29T05:26:53.654Z,101329.78
2023-01-29T05:30:08.780Z,101318.19
2023-01-29T05:33:31.813Z,101326.75
2023-01-29T05:36:33.589Z,101317.94
2023-01-29T05:39:48.803Z,101318.63
2023-01-29T05:42:50.878Z,101320.38
2023-01-29T05:46:06.842Z,101321.28
2023-01-29T05:49:08.934Z,101326.75
2023-01-29T05:52:30.815Z,101328.16
2023-01-29T05:55:38.880Z,101330.62
2023-01-29T05:58:47.584Z,101333.00
2023-01-29T06:01:55.846Z,101332.22
2023-01-29T06:05:10.824Z,101334.87
2023-01-29T06:08:18.841Z,101338.00
2023-01-29T06:11:33.851Z,101338.09
2023-01-29T06:14:35.759Z,101341.72
2023-01-29T06:17:50.826Z,101345.66
2023-01-29T06:20:53.212Z,101349.09
2023-01-29T06:24:08.820Z,101353.38
2023-01-29T06:27:10.732Z,101357.34
2023-01-29T06:30:26.828Z,101368.06
2023-01-29T06:33:35.833Z,101372.97
2023-01-29T06:36:44.436Z,101382.94
2023-01-29T06:39:53.008Z,101385.78
2023-01-29T06:43:01.480Z,101389.13
2023-01-29T06:46:13.805Z,101379.84
2023-01-29T06:49:22.572Z,101391.88
2023-01-29T06:52:43.848Z,101389.69
2023-01-29T06:55:51.752Z,101393.19
2023-01-29T06:59:06.927Z,101396.88
2023-01-29T07:02:15.903Z,101393.56
2023-01-29T07:05:30.859Z,101392.25
2023-01-29T07:08:39.951Z,101390.91
2023-01-29T07:11:55.845Z,101390.84
2023-01-29T07:14:57.867Z,101381.25
2023-01-29T07:18:12.828Z,101397.47
2023-01-29T07:21:21.890Z,101394.34
2023-01-29T07:24:36.843Z,101382.75
2023-01-29T07:27:44.901Z,101384.75
2023-01-29T07:31:04.930Z,101369.56
2023-01-29T07:34:13.836Z,101379.37
2023-01-29T07:37:22.564Z,101373.19
2023-01-29T07:40:31.878Z,101364.47
2023-01-29T07:43:40.518Z,101372.22
2023-01-29T07:46:49.854Z,101370.16
2023-01-29T07:50:12.859Z,101360.78
2023-01-29T07:53:27.830Z,101359.47
2023-01-29T07:56:36.492Z,101355.28
2023-01-29T07:59:44.853Z,101361.03
2023-01-29T08:03:00.964Z,101371.00
2023-01-29T08:06:04.407Z,101365.31
2023-01-29T08:09:22.051Z,101370.09
2023-01-29T08:12:30.841Z,101365.03
2023-01-29T08:15:43.503Z,101372.50
2023-01-29T08:18:51.883Z,101380.47
2023-01-29T08:22:00.800Z,101377.00
2023-01-29T08:25:08.936Z,101374.22
2023-01-29T08:28:23.870Z,101381.41
2023-01-29T08:31:53.726Z,101385.28
2023-01-29T08:35:08.891Z,101397.16
2023-01-29T08:38:10.760Z,101395.56
2023-01-29T08:41:25.871Z,101400.41
2023-01-29T08:44:27.809Z,101400.09
2023-01-29T08:47:42.845Z,101412.66
2023-01-29T08:50:51.907Z,101400.69
2023-01-29T08:54:00.887Z,101406.66
2023-01-29T08:57:08.860Z,101417.53
2023-01-29T09:00:19.155Z,101425.59
2023-01-29T09:03:27.928Z,101433.37
2023-01-29T09:06:42.925Z,101429.47
2023-01-29T09:09:44.800Z,101430.91
2023-01-29T09:12:59.885Z,101432.81
2023-01-29T09:16:03.175Z,101398.88
2023-01-29T09:19:17.997Z,101437.28
2023-01-29T09:22:26.888Z,101433.94
2023-01-29T09:25:42.891Z,101429.63
2023-01-29T09:28:50.923Z,101428.78
2023-01-29T09:32:05.879Z,101433.06
2023-01-29T09:35:16.180Z,101427.31
2023-01-29T09:38:24.592Z,101440.87
2023-01-29T09:41:58.899Z,101436.31
2023-01-29T09:45:20.908Z,101436.94
2023-01-29T09:48:33.458Z,101442.00
2023-01-29T09:51:53.917Z,101445.41
2023-01-29T09:55:20.411Z,101437.66
2023-01-29T09:58:38.901Z,101439.94
2023-01-29T10:02:08.003Z,101439.97
2023-01-29T10:05:33.131Z,101446.91
2023-01-29T10:09:08.947Z,101434.25
2023-01-29T10:12:40.756Z,101446.66
2023-01-29T10:16:14.904Z,101448.47
2023-01-29T10:19:55.915Z,101445.03
2023-01-29T10:23:27.932Z,101450.78
2023-01-29T10:26:42.999Z,101442.38
2023-01-29T10:29:46.905Z,101441.72
2023-01-29T10:33:05.906Z,101436.69
2023-01-29T10:36:21.201Z,101441.34
2023-01-29T10:39:32.976Z,101446.03
2023-01-29T10:42:50.009Z,101444.56
2023-01-29T10:46:17.924Z,101439.00
2023-01-29T10:49:55.895Z,101432.28
2023-01-29T10:53:33.917Z,101431.66
2023-01-29T10:56:59.924Z,101435.72
2023-01-29T11:00:13.734Z,101429.00
2023-01-29T11:03:29.433Z,101420.41
2023-01-29T11:06:43.908Z,101408.94
2023-01-29T11:10:09.026Z,101402.59
2023-01-29T11:13:18.514Z,101402.19
2023-01-29T11:16:26.943Z,101406.47
2023-01-29T11:19:47.937Z,101400.13
2023-01-29T11:22:54.144Z,101396.44
2023-01-29T11:26:09.938Z,101364.09
2023-01-29T11:29:32.119Z,101380.66
2023-01-29T11:32:47.909Z,101382.09
2023-01-29T11:35:56.923Z,101376.53
2023-01-29T11:39:23.952Z,101364.19
2023-01-29T11:42:31.480Z,101367.12
2023-01-29T11:45:46.955Z,101362.19
2023-01-29T11:49:05.852Z,101360.78
2023-01-29T11:52:40.424Z,101352.91
2023-01-29T11:55:53.936Z,101344.31
2023-01-29T11:59:03.039Z,101334.87
2023-01-29T12:02:31.942Z,101330.59
2023-01-29T12:05:48.917Z,101334.22
2023-01-29T12:09:01.704Z,101332.97
2023-01-29T12:12:34.040Z,101333.88
2023-01-29T12:15:49.984Z,101337.31
2023-01-29T12:19:04.901Z,101336.78
2023-01-29T12:22:26.648Z,101330.41
2023-01-29T12:25:50.945Z,101327.84
2023-01-29T12:29:31.942Z,101317.50
2023-01-29T12:32:49.616Z,101317.19
2023-01-29T12:36:33.988Z,101311.25
2023-01-29T12:39:42.864Z,101312.34
2023-01-29T12:43:05.041Z,101308.25
2023-01-29T12:46:28.003Z,101316.56
2023-01-29T12:49:39.659Z,101330.31
2023-01-29T12:53:01.989Z,101315.00
2023-01-29T12:56:29.121Z,101313.66
2023-01-29T12:59:45.965Z,101312.69
2023-01-29T13:03:00.755Z,101304.22
2023-01-29T13:06:21.967Z,101303.75
2023-01-29T13:09:34.667Z,101262.56
2023-01-29T13:12:45.971Z,101296.59
2023-01-29T13:16:03.003Z,101276.91
2023-01-29T13:19:24.436Z,101275.13
2023-01-29T13:22:44.948Z,101267.63
2023-01-29T13:25:50.690Z,101270.81
2023-01-29T13:29:04.988Z,101271.34
2023-01-29T13:32:09.377Z,101264.84
2023-01-29T13:35:27.000Z,101261.75
2023-01-29T13:38:39.008Z,101257.25
2023-01-29T13:41:49.969Z,101259.41
2023-01-29T13:45:03.058Z,101261.28
2023-01-29T13:48:31.004Z,101276.00
2023-01-29T13:51:39.522Z,101271.97
2023-01-29T13:54:59.953Z,101280.44
2023-01-29T13:58:17.080Z,101276.25
2023-01-29T14:01:52.004Z,101271.78
2023-01-29T14:05:13.999Z,101262.06
2023-01-29T14:08:45.955Z,101257.47
2023-01-29T14:11:48.537Z,101269.88
2023-01-29T14:15:21.761Z,101272.19
2023-01-29T14:18:33.415Z,101281.34
2023-01-29T14:21:43.988Z,101284.00
2023-01-29T14:25:05.040Z,101284.28
2023-01-29T14:28:29.978Z,101283.12
2023-01-29T14:31:51.041Z,101288.22
2023-01-29T14:35:04.994Z,101278.22
2023-01-29T14:38:21.995Z,101286.84
2023-01-29T14:41:31.772Z,101280.94
2023-01-29T14:45:06.006Z,101282.19
2023-01-29T14:48:37.413Z,101278.84
2023-01-29T14:51:52.048Z,101280.91
2023-01-29T14:55:22.008Z,101284.28
2023-01-29T14:58:40.045Z,101289.94
2023-01-29T15:02:02.075Z,101282.13
2023-01-29T15:05:18.023Z,101278.38
2023-01-29T15:08:41.980Z,101278.28
2023-01-29T15:12:05.983Z,101280.00
2023-01-29T15:15:28.123Z,101272.97
2023-01-29T15:18:44.070Z,101272.59
2023-01-29T15:22:18.962Z,101278.75
2023-01-29T15:25:34.647Z,101274.22
2023-01-29T15:28:47.230Z,101271.03
2023-01-29T15:32:07.992Z,101263.13
2023-01-29T15:35:35.016Z,101261.06
2023-01-29T15:38:37.120Z,101264.69
2023-01-29T15:41:53.012Z,101269.00
2023-01-29T15:44:55.492Z,101269.03
2023-01-29T15:48:19.036Z,101266.59
2023-01-29T15:51:25.036Z,101271.03
2023-01-29T15:54:46.991Z,101277.03
2023-01-29T15:58:02.070Z,101281.09
2023-01-29T16:01:04.211Z,101283.75
2023-01-29T16:04:27.020Z,101279.53
2023-01-29T16:07:30.143Z,101284.34
2023-01-29T16:10:48.021Z,101280.84
2023-01-29T16:13:57.550Z,101288.53
2023-01-29T16:17:29.047Z,101285.06
2023-01-29T16:20:52.086Z,101290.06
2023-01-29T16:24:06.270Z,101282.38
2023-01-29T16:27:20.056Z,101290.31
2023-01-29T16:30:29.201Z,101305.38
2023-01-29T16:33:43.049Z,101303.03
2023-01-29T16:37:00.032Z,101310.16
2023-01-29T16:40:22.056Z,101323.47
2023-01-29T16:43:54.046Z,101318.91
2023-01-29T16:47:11.775Z,101323.88
2023-01-29T16:50:54.204Z,101315.97
2023-01-29T16:54:21.108Z,101323.56
2023-01-29T16:57:33.307Z,101324.22
2023-01-29T17:00:54.103Z,101320.72
2023-01-29T17:04:04.499Z,101320.41
2023-01-29T17:07:24.041Z,101319.84
2023-01-29T17:10:41.055Z,101323.44
2023-01-29T17:13:52.064Z,101315.25
2023-01-29T17:17:11.049Z,101310.97
2023-01-29T17:20:16.195Z,101314.47
2023-01-29T17:23:32.041Z,101321.53
2023-01-29T17:26:44.267Z,101311.56
2023-01-29T17:30:01.016Z,101309.22
2023-01-29T17:33:15.725Z,101315.56
2023-01-29T17:36:30.096Z,101317.16
2023-01-29T17:39:39.062Z,101300.06
2023-01-29T17:42:47.960Z,101297.03
2023-01-29T17:45:56.091Z,101288.19
2023-01-29T17:49:19.261Z,101284.59
2023-01-29T17:52:28.076Z,101300.47
2023-01-29T17:55:43.093Z,101290.41
2023-01-29T17:58:45.275Z,101285.41
2023-01-29T18:02:01.137Z,101276.22
2023-01-29T18:05:03.256Z,101272.91
2023-01-29T18:08:32.040Z,101274.75
2023-01-29T18:11:49.066Z,101275.00
2023-01-29T18:14:57.944Z,101268.41
2023-01-29T18:18:07.101Z,101273.44
2023-01-29T18:21:16.140Z,101268.94
2023-01-29T18:24:25.049Z,101265.66
2023-01-29T18:27:34.776Z,101269.09
2023-01-29T18:30:43.130Z,101256.91
2023-01-29T18:33:59.080Z,101247.72
2023-01-29T18:37:01.146Z,101257.44
2023-01-29T18:40:18.090Z,101258.91
2023-01-29T18:43:20.154Z,101247.56
2023-01-29T18:46:35.101Z,101246.09
2023-01-29T18:49:37.156Z,101248.34
2023-01-29T18:52:52.063Z,101259.09
2023-01-29T18:56:02.400Z,101260.37
2023-01-29T18:59:18.097Z,101251.38
2023-01-29T19:02:27.185Z,101250.25
2023-01-29T19:05:36.056Z,101257.84
2023-01-29T19:08:51.049Z,101253.31
2023-01-29T19:12:00.122Z,101266.31
2023-01-29T19:15:10.672Z,101255.88
2023-01-29T19:18:26.079Z,101252.69
2023-01-29T19:21:35.220Z,101250.59
2023-01-29T19:24:44.072Z,101245.41
2023-01-29T19:27:53.087Z,101247.13
2023-01-29T19:31:09.143Z,101243.63
2023-01-29T19:34:18.124Z,101243.19
2023-01-29T19:37:28.044Z,101247.09
2023-01-29T19:40:43.109Z,101250.91
2023-01-29T19:43:45.153Z,101241.44
2023-01-29T19:47:01.092Z,101236.13
2023-01-29T19:50:11.120Z,101232.19
2023-01-29T19:53:28.730Z,101235.12
2023-01-29T19:56:38.106Z,101238.94
2023-01-29T19:59:46.817Z,101235.53
2023-01-29T20:02:55.126Z,101235.12
2023-01-29T20:06:06.017Z,101235.19
2023-01-29T20:09:21.148Z,101236.59
2023-01-29T20:12:30.095Z,101234.19
2023-01-29T20:15:42.868Z,101237.44
2023-01-29T20:19:14.377Z,101240.56
2023-01-29T20:22:17.173Z,101232.34
2023-01-29T20:25:32.125Z,101227.19
2023-01-29T20:28:48.124Z,101219.38
2023-01-29T20:31:57.325Z,101215.31
2023-01-29T20:35:13.111Z,101206.94
2023-01-29T20:38:22.089Z,101201.72
2023-01-29T20:41:31.125Z,101202.97
2023-01-29T20:44:46.134Z,101211.94
2023-01-29T20:47:49.490Z,101204.22
2023-01-29T20:51:11.113Z,101201.03
2023-01-29T20:54:33.330Z,101205.59
2023-01-29T20:57:37.773Z,101219.53
2023-01-29T21:00:52.147Z,101215.78
2023-01-29T21:04:00.715Z,101213.31
2023-01-29T21:07:09.184Z,101215.44
2023-01-29T21:10:18.350Z,101212.78
2023-01-29T21:13:27.112Z,101226.19
2023-01-29T21:16:36.034Z,101231.94
2023-01-29T21:19:45.136Z,101222.31
2023-01-29T21:23:00.115Z,101234.66
2023-01-29T21:26:04.873Z,101239.81
2023-01-29T21:29:20.112Z,101246.22
2023-01-29T21:32:28.092Z,101243.63
2023-01-29T21:35:36.815Z,101239.94
2023-01-29T21:38:46.171Z,101236.03
2023-01-29T21:41:55.021Z,101236.84
2023-01-29T21:45:03.151Z,101232.06
2023-01-29T21:48:11.849Z,101228.38
2023-01-29T21:51:26.121Z,101238.47
2023-01-29T21:54:34.461Z,101231.31
2023-01-29T21:57:50.137Z,101222.16
2023-01-29T22:00:52.062Z,101232.25
2023-01-29T22:04:07.137Z,101228.56
2023-01-29T22:07:16.175Z,101217.75
2023-01-29T22:10:24.764Z,101212.06
2023-01-29T22:13:33.120Z,101210.19
2023-01-29T22:16:41.799Z,101207.84
2023-01-29T22:19:50.139Z,101205.12
2023-01-29T22:22:58.790Z,101203.28
2023-01-29T22:26:12.207Z,101195.66
2023-01-29T22:29:27.180Z,101186.66
2023-01-29T22:32:29.109Z,101185.84
2023-01-29T22:35:45.179Z,101184.72
2023-01-29T22:38:47.043Z,101180.06
2023-01-29T22:42:02.165Z,101183.34
2023-01-29T22:45:11.159Z,101170.50
2023-01-29T22:48:19.787Z,101167.97
2023-01-29T22:51:29.164Z,101169.63
2023-01-29T22:54:44.720Z,101167.78
2023-01-29T22:57:55.140Z,101164.53
2023-01-29T23:01:04.421Z,101162.50
2023-01-29T23:04:13.165Z,101157.06
2023-01-29T23:07:28.152Z,101149.69
2023-01-29T23:10:30.017Z,101157.94
2023-01-29T23:13:45.203Z,101160.41
2023-01-29T23:16:47.051Z,101156.88
2023-01-29T23:20:02.195Z,101151.78
2023-01-29T23:23:17.177Z,101152.56
2023-01-29T23:26:19.164Z,101147.81
2023-01-29T23:29:34.141Z,101140.59
2023-01-29T23:32:36.902Z,101143.34
2023-01-29T23:35:51.197Z,101138.84
2023-01-29T23:38:53.012Z,101128.28
2023-01-29T23:42:09.163Z,101127.50
2023-01-29T23:45:18.176Z,101127.63
2023-01-29T23:48:26.852Z,101124.84
2023-01-29T23:51:35.229Z,101123.84
2023-01-29T23:54:50.457Z,101117.84
2023-01-29T23:57:59.158Z,101119.03
